Time;durP1;ratioP1;P1;durP2;ratioP2;P2;SDS_P1;SDS_P2;PMS_P1;PMS_P2;Temp;Humidity;BMP_temperature;BMP_pressure;BME280_temperature;BME280_humidity;BME280_pressure;Samples;Min_cycle;Max_cycle;Signal;HPM_P1;HPM_P2
2022/03/27 00:01:53;;;;;;;18.75;6.78;;;;;;;;;;4930362;29;20744;-69
2022/03/27 00:04:19;;;;;;;11.85;6.28;;;;;;;;;;4928695;29;20102;-71
2022/03/27 00:06:45;;;;;;;13.38;6.45;;;;;;;;;;4927900;29;20087;-67
2022/03/27 00:09:11;;;;;;;14.70;6.28;;;;;;;;;;4926040;29;20044;-72
2022/03/27 00:11:37;;;;;;;10.73;6.30;;;;;;;;;;4930070;29;20521;-74
2022/03/27 00:14:05;;;;;;;15.70;6.38;;;;;;;;;;4930684;29;20044;-71
2022/03/27 00:16:32;;;;;;;13.10;6.55;;;;;;;;;;4930632;29;20449;-67
2022/03/27 00:18:59;;;;;;;14.10;6.57;;;;;;;;;;4929604;29;20070;-69
2022/03/27 00:21:25;;;;;;;10.73;6.43;;;;;;;;;;4919053;29;20051;-68
2022/03/27 00:23:52;;;;;;;13.23;6.28;;;;;;;;;;4927358;29;20047;-71
2022/03/27 00:26:19;;;;;;;12.90;6.40;;;;;;;;;;4926523;29;20047;-68
2022/03/27 00:28:46;;;;;;;11.90;5.80;;;;;;;;;;4929277;29;20114;-72
2022/03/27 00:31:12;;;;;;;13.52;6.50;;;;;;;;;;4930004;29;20062;-69
2022/03/27 00:33:40;;;;;;;13.65;6.40;;;;;;;;;;4931182;29;20099;-66
2022/03/27 00:36:09;;;;;;;13.45;6.93;;;;;;;;;;4925805;29;20047;-70
2022/03/27 00:38:37;;;;;;;12.02;6.25;;;;;;;;;;4930449;29;20052;-67
2022/03/27 00:41:05;;;;;;;10.25;6.20;;;;;;;;;;4926861;29;20479;-66
2022/03/27 00:43:33;;;;;;;10.88;5.72;;;;;;;;;;4927715;29;20465;-71
2022/03/27 00:45:59;;;;;;;14.48;6.60;;;;;;;;;;4926813;29;20386;-69
2022/03/27 00:48:26;;;;;;;11.75;6.30;;;;;;;;;;4927676;29;20071;-67
2022/03/27 00:50:52;;;;;;;11.73;5.95;;;;;;;;;;4927294;29;20171;-66
2022/03/27 00:53:20;;;;;;;13.23;6.03;;;;;;;;;;4929696;29;20409;-66
2022/03/27 00:55:46;;;;;;;13.80;6.35;;;;;;;;;;4930363;29;20055;-66
2022/03/27 00:58:13;;;;;;;11.68;6.40;;;;;;;;;;4927482;29;20384;-75
2022/03/27 01:00:41;;;;;;;17.55;6.57;;;;;;;;;;4919933;29;20122;-71
2022/03/27 01:03:09;;;;;;;10.15;6.03;;;;;;;;;;4928765;29;20040;-69
2022/03/27 01:05:35;;;;;;;11.90;6.28;;;;;;;;;;4927472;29;20058;-69
2022/03/27 01:08:05;;;;;;;10.13;5.85;;;;;;;;;;4926317;29;20090;-68
2022/03/27 01:10:32;;;;;;;15.25;6.25;;;;;;;;;;4923033;29;20055;-67
2022/03/27 01:12:58;;;;;;;14.60;5.85;;;;;;;;;;4924633;29;20051;-66
2022/03/27 01:15:53;;;;;;;14.20;6.30;;;;;;;;;;4926606;29;20102;-69
2022/03/27 01:18:20;;;;;;;10.53;6.17;;;;;;;;;;4913962;29;20497;-73
2022/03/27 01:20:46;;;;;;;11.90;5.80;;;;;;;;;;4925575;29;20361;-72
2022/03/27 01:23:13;;;;;;;12.73;6.63;;;;;;;;;;4925328;29;20060;-68
2022/03/27 01:25:42;;;;;;;13.90;6.60;;;;;;;;;;4928231;29;20485;-69
2022/03/27 01:28:13;;;;;;;11.82;6.45;;;;;;;;;;4930995;29;20047;-69
2022/03/27 01:30:39;;;;;;;11.35;6.47;;;;;;;;;;4927544;29;20055;-67
2022/03/27 01:33:09;;;;;;;13.77;6.10;;;;;;;;;;4927190;29;20051;-68
2022/03/27 01:35:36;;;;;;;10.68;5.95;;;;;;;;;;4928409;29;20044;-66
2022/03/27 01:38:02;;;;;;;14.60;6.50;;;;;;;;;;4929871;29;20143;-68
2022/03/27 01:40:29;;;;;;;9.30;5.40;;;;;;;;;;4927924;29;20586;-68
2022/03/27 01:42:55;;;;;;;12.32;6.63;;;;;;;;;;4927784;29;20489;-72
2022/03/27 01:45:24;;;;;;;10.75;6.38;;;;;;;;;;4927045;29;20167;-68
2022/03/27 01:47:51;;;;;;;11.45;6.07;;;;;;;;;;4928105;29;20055;-75
2022/03/27 01:50:16;;;;;;;10.88;5.20;;;;;;;;;;4927385;29;20052;-67
2022/03/27 01:52:42;;;;;;;10.95;5.40;;;;;;;;;;4925901;29;20159;-75
2022/03/27 01:55:12;;;;;;;9.07;5.32;;;;;;;;;;4929359;29;20417;-71
2022/03/27 01:57:39;;;;;;;9.60;5.88;;;;;;;;;;4928926;29;20480;-70
2022/03/27 02:00:06;;;;;;;14.82;5.70;;;;;;;;;;4924353;29;20040;-68
2022/03/27 02:02:31;;;;;;;9.45;5.43;;;;;;;;;;4926932;29;20489;-68
2022/03/27 02:04:58;;;;;;;15.40;5.65;;;;;;;;;;4928434;29;20051;-77
2022/03/27 02:07:24;;;;;;;12.40;5.10;;;;;;;;;;4928539;29;20052;-68
2022/03/27 02:09:50;;;;;;;12.30;6.10;;;;;;;;;;4923946;29;20417;-78
2022/03/27 02:12:16;;;;;;;10.55;5.32;;;;;;;;;;4928210;29;20039;-67
2022/03/27 02:14:42;;;;;;;14.95;5.70;;;;;;;;;;4912257;29;20118;-68
2022/03/27 02:17:08;;;;;;;11.40;4.90;;;;;;;;;;4923930;29;20358;-66
2022/03/27 02:19:38;;;;;;;9.13;5.25;;;;;;;;;;4923675;29;20178;-75
2022/03/27 02:22:04;;;;;;;14.13;5.45;;;;;;;;;;4917761;29;20091;-68
2022/03/27 02:24:30;;;;;;;14.07;6.18;;;;;;;;;;4929777;29;20059;-68
2022/03/27 02:26:56;;;;;;;9.70;5.60;;;;;;;;;;4929050;29;20339;-67
2022/03/27 02:29:22;;;;;;;8.88;5.05;;;;;;;;;;4923215;29;20111;-70
2022/03/27 02:31:47;;;;;;;8.98;4.97;;;;;;;;;;4915542;29;20100;-67
2022/03/27 02:34:15;;;;;;;10.73;4.95;;;;;;;;;;4912213;29;20079;-70
2022/03/27 02:36:41;;;;;;;9.45;5.22;;;;;;;;;;4923014;29;20062;-67
2022/03/27 02:39:07;;;;;;;10.02;5.43;;;;;;;;;;4926660;29;20048;-76
2022/03/27 02:41:33;;;;;;;12.00;5.15;;;;;;;;;;4928323;29;20066;-66
2022/03/27 02:43:59;;;;;;;11.52;5.00;;;;;;;;;;4924017;29;20418;-66
2022/03/27 02:46:25;;;;;;;10.63;5.10;;;;;;;;;;4923186;29;20056;-67
2022/03/27 02:48:51;;;;;;;11.48;5.53;;;;;;;;;;4930585;29;20059;-67
2022/03/27 02:51:17;;;;;;;10.52;5.65;;;;;;;;;;4925677;29;20359;-69
2022/03/27 02:53:42;;;;;;;11.70;6.10;;;;;;;;;;4932797;29;20036;-71
2022/03/27 02:56:09;;;;;;;13.27;5.90;;;;;;;;;;4933096;29;20067;-67
2022/03/27 02:58:35;;;;;;;13.07;5.85;;;;;;;;;;4928542;29;20054;-65
2022/03/27 03:01:02;;;;;;;13.60;5.95;;;;;;;;;;4929874;29;20043;-68
2022/03/27 03:03:28;;;;;;;9.07;5.28;;;;;;;;;;4931368;29;20059;-67
2022/03/27 03:05:55;;;;;;;9.20;4.95;;;;;;;;;;4931923;29;20040;-66
2022/03/27 03:08:21;;;;;;;10.73;5.68;;;;;;;;;;4932105;29;20142;-72
2022/03/27 03:10:47;;;;;;;10.90;5.97;;;;;;;;;;4932264;29;20047;-74
2022/03/27 03:13:13;;;;;;;18.58;5.97;;;;;;;;;;4931379;29;20070;-68
2022/03/27 03:15:41;;;;;;;11.00;5.70;;;;;;;;;;4930013;29;20138;-70
2022/03/27 03:18:10;;;;;;;11.23;5.57;;;;;;;;;;4930618;29;20078;-67
2022/03/27 03:20:37;;;;;;;10.70;5.72;;;;;;;;;;4928144;29;20391;-70
2022/03/27 03:23:03;;;;;;;10.40;5.63;;;;;;;;;;4927282;29;20040;-70
2022/03/27 03:25:30;;;;;;;11.05;5.90;;;;;;;;;;4930673;29;20051;-66
2022/03/27 03:27:56;;;;;;;15.38;5.93;;;;;;;;;;4932444;29;20063;-74
2022/03/27 03:30:23;;;;;;;13.10;5.90;;;;;;;;;;4930219;29;20052;-67
2022/03/27 03:32:49;;;;;;;9.35;5.43;;;;;;;;;;4931146;29;20065;-67
2022/03/27 03:35:16;;;;;;;14.85;6.22;;;;;;;;;;4929452;29;20126;-65
2022/03/27 03:37:42;;;;;;;11.43;5.50;;;;;;;;;;4928292;29;20040;-67
2022/03/27 03:40:09;;;;;;;12.80;5.75;;;;;;;;;;4928759;29;20058;-69
2022/03/27 03:42:36;;;;;;;11.30;5.60;;;;;;;;;;4929134;29;20154;-68
2022/03/27 03:45:03;;;;;;;11.45;5.20;;;;;;;;;;4927608;29;20143;-68
2022/03/27 03:47:29;;;;;;;11.82;5.47;;;;;;;;;;4931016;29;20050;-66
2022/03/27 03:49:56;;;;;;;13.43;5.40;;;;;;;;;;4929303;29;20056;-66
2022/03/27 03:52:21;;;;;;;11.93;5.45;;;;;;;;;;4929583;29;20050;-69
2022/03/27 03:54:48;;;;;;;14.02;5.55;;;;;;;;;;4930996;29;20498;-66
2022/03/27 03:57:14;;;;;;;14.50;4.82;;;;;;;;;;4929299;29;20167;-72
2022/03/27 03:59:40;;;;;;;8.38;5.00;;;;;;;;;;4922219;29;20508;-66
2022/03/27 04:02:08;;;;;;;9.63;5.20;;;;;;;;;;4922214;29;20458;-65
2022/03/27 04:04:35;;;;;;;13.25;5.13;;;;;;;;;;4927605;29;20054;-72
2022/03/27 04:07:03;;;;;;;10.50;5.20;;;;;;;;;;4930722;29;20062;-65
2022/03/27 04:09:30;;;;;;;10.60;4.55;;;;;;;;;;4928970;29;20044;-66
2022/03/27 04:11:56;;;;;;;8.30;5.13;;;;;;;;;;4930738;29;20478;-66
2022/03/27 04:14:23;;;;;;;11.10;5.18;;;;;;;;;;4928040;29;20048;-68
2022/03/27 04:16:49;;;;;;;9.45;4.95;;;;;;;;;;4929263;29;20123;-71
2022/03/27 04:19:15;;;;;;;8.23;5.03;;;;;;;;;;4928103;29;20449;-67
2022/03/27 04:21:41;;;;;;;9.90;5.20;;;;;;;;;;4930258;29;20048;-67
2022/03/27 04:24:08;;;;;;;10.20;5.35;;;;;;;;;;4928934;29;20052;-71
2022/03/27 04:26:34;;;;;;;11.02;5.00;;;;;;;;;;4926881;29;20047;-66
2022/03/27 04:29:05;;;;;;;14.88;5.38;;;;;;;;;;4928779;29;20048;-67
2022/03/27 04:31:31;;;;;;;17.42;5.65;;;;;;;;;;4912803;29;20052;-66
2022/03/27 04:33:57;;;;;;;15.55;5.15;;;;;;;;;;4928830;29;20048;-67
2022/03/27 04:36:23;;;;;;;11.10;5.47;;;;;;;;;;4927887;29;20206;-67
2022/03/27 04:38:49;;;;;;;10.68;5.57;;;;;;;;;;4928144;29;20182;-74
2022/03/27 04:41:15;;;;;;;11.30;5.43;;;;;;;;;;4930311;29;20410;-72
2022/03/27 04:43:41;;;;;;;11.15;5.35;;;;;;;;;;4930170;29;20047;-67
2022/03/27 04:46:07;;;;;;;10.45;5.50;;;;;;;;;;4927721;29;20043;-67
2022/03/27 04:48:34;;;;;;;14.15;6.13;;;;;;;;;;4926966;29;20384;-73
2022/03/27 04:51:00;;;;;;;12.52;5.78;;;;;;;;;;4929701;29;20043;-67
2022/03/27 04:53:26;;;;;;;13.85;6.78;;;;;;;;;;4926336;29;20488;-69
2022/03/27 04:55:53;;;;;;;8.52;5.70;;;;;;;;;;4929386;29;20043;-66
2022/03/27 04:58:19;;;;;;;10.93;5.82;;;;;;;;;;4928011;29;20052;-70
2022/03/27 05:00:45;;;;;;;14.77;6.20;;;;;;;;;;4922060;29;20063;-72
2022/03/27 05:03:11;;;;;;;10.57;6.60;;;;;;;;;;4928618;29;20161;-66
2022/03/27 05:05:39;;;;;;;11.52;6.00;;;;;;;;;;4926731;29;20047;-69
2022/03/27 05:08:05;;;;;;;13.13;6.45;;;;;;;;;;4929609;29;20525;-67
2022/03/27 05:10:31;;;;;;;13.90;6.28;;;;;;;;;;4912169;29;20044;-68
2022/03/27 05:12:57;;;;;;;11.20;6.22;;;;;;;;;;4928281;29;20047;-67
2022/03/27 05:15:23;;;;;;;12.88;6.25;;;;;;;;;;4927255;29;20043;-69
2022/03/27 05:17:58;;;;;;;10.38;5.72;;;;;;;;;;4928814;29;20508;-72
2022/03/27 05:20:28;;;;;;;11.68;6.45;;;;;;;;;;4926149;29;20071;-67
2022/03/27 05:22:55;;;;;;;13.25;6.07;;;;;;;;;;4929660;29;20055;-66
2022/03/27 05:25:21;;;;;;;13.27;5.97;;;;;;;;;;4926000;29;20445;-67
2022/03/27 05:27:50;;;;;;;13.40;5.78;;;;;;;;;;4928008;29;20044;-69
2022/03/27 05:30:21;;;;;;;10.63;6.55;;;;;;;;;;4926118;29;20052;-67
2022/03/27 05:32:48;;;;;;;13.35;6.20;;;;;;;;;;4928433;29;20048;-69
2022/03/27 05:35:15;;;;;;;16.50;6.38;;;;;;;;;;4928158;29;20058;-67
2022/03/27 05:37:42;;;;;;;13.73;6.45;;;;;;;;;;4926858;29;20082;-65
2022/03/27 05:40:11;;;;;;;15.85;6.03;;;;;;;;;;4927016;29;20046;-71
2022/03/27 05:42:38;;;;;;;10.70;5.70;;;;;;;;;;4928733;29;20055;-67
2022/03/27 05:45:05;;;;;;;14.35;6.50;;;;;;;;;;4922326;29;20135;-66
2022/03/27 05:47:31;;;;;;;11.68;6.47;;;;;;;;;;4928642;29;20083;-67
2022/03/27 05:49:58;;;;;;;12.30;6.40;;;;;;;;;;4924319;29;20063;-74
2022/03/27 05:52:24;;;;;;;20.70;6.68;;;;;;;;;;4926598;29;20409;-68
2022/03/27 05:54:50;;;;;;;17.17;6.00;;;;;;;;;;4928762;29;20102;-71
2022/03/27 05:57:18;;;;;;;13.05;6.03;;;;;;;;;;4929410;29;20056;-65
2022/03/27 05:59:45;;;;;;;17.92;5.95;;;;;;;;;;4929477;29;20397;-66
2022/03/27 06:02:12;;;;;;;12.25;5.85;;;;;;;;;;4928573;29;20051;-67
2022/03/27 06:04:38;;;;;;;13.80;5.57;;;;;;;;;;4927478;29;20051;-68
2022/03/27 06:07:05;;;;;;;13.35;5.85;;;;;;;;;;4906765;29;20052;-71
2022/03/27 06:09:30;;;;;;;12.52;5.75;;;;;;;;;;4920558;29;20048;-65
2022/03/27 06:11:56;;;;;;;13.25;5.95;;;;;;;;;;4928512;29;20458;-68
2022/03/27 06:14:22;;;;;;;11.00;5.60;;;;;;;;;;4928526;29;20040;-69
2022/03/27 06:16:48;;;;;;;10.07;5.38;;;;;;;;;;4925377;29;20489;-71
2022/03/27 06:19:14;;;;;;;15.10;6.30;;;;;;;;;;4927638;29;20067;-66
2022/03/27 06:21:40;;;;;;;14.85;5.68;;;;;;;;;;4930572;29;20044;-76
2022/03/27 06:24:06;;;;;;;12.48;6.07;;;;;;;;;;4931738;29;20430;-68
2022/03/27 06:26:31;;;;;;;18.20;6.50;;;;;;;;;;4928431;29;20071;-76
2022/03/27 06:28:57;;;;;;;11.45;6.00;;;;;;;;;;4923716;29;20066;-70
2022/03/27 06:31:23;;;;;;;11.15;5.93;;;;;;;;;;4923834;29;20126;-69
2022/03/27 06:33:49;;;;;;;12.98;5.63;;;;;;;;;;4930145;29;20469;-67
2022/03/27 06:36:15;;;;;;;12.52;5.70;;;;;;;;;;4930823;29;20048;-67
2022/03/27 06:38:41;;;;;;;13.20;5.80;;;;;;;;;;4932043;29;20048;-69
2022/03/27 06:41:07;;;;;;;11.82;5.47;;;;;;;;;;4931533;29;20084;-66
2022/03/27 06:43:36;;;;;;;12.43;5.88;;;;;;;;;;4929959;29;20044;-70
2022/03/27 06:46:02;;;;;;;16.55;6.20;;;;;;;;;;4925980;29;20107;-73
2022/03/27 06:48:28;;;;;;;14.50;6.05;;;;;;;;;;4930700;29;20088;-68
2022/03/27 06:50:54;;;;;;;13.23;5.45;;;;;;;;;;4919193;29;20040;-67
2022/03/27 06:53:24;;;;;;;11.70;5.57;;;;;;;;;;4929576;29;20048;-66
2022/03/27 06:55:50;;;;;;;17.02;6.25;;;;;;;;;;4938284;29;20048;-67
2022/03/27 06:58:16;;;;;;;18.58;6.22;;;;;;;;;;4938091;29;20416;-68
2022/03/27 07:03:26;;;;;;;;;;;;;;;;;;4925776;29;20043;-69
2022/03/27 07:05:52;;;;;;;11.63;5.78;;;;;;;;;;4933525;29;19922;-67
2022/03/27 07:08:20;;;;;;;12.20;6.32;;;;;;;;;;4934627;29;20048;-72
2022/03/27 07:10:47;;;;;;;17.05;6.25;;;;;;;;;;4927262;29;20532;-66
2022/03/27 07:13:15;;;;;;;17.60;5.93;;;;;;;;;;4927632;29;20137;-67
2022/03/27 07:15:43;;;;;;;14.00;6.15;;;;;;;;;;4929953;29;20035;-73
2022/03/27 07:18:11;;;;;;;14.90;6.13;;;;;;;;;;4930632;29;20078;-71
2022/03/27 07:20:41;;;;;;;16.58;6.78;;;;;;;;;;4936454;29;20195;-70
2022/03/27 07:23:09;;;;;;;10.93;5.47;;;;;;;;;;4930246;29;20048;-66
2022/03/27 07:25:38;;;;;;;11.38;5.57;;;;;;;;;;4929898;29;20040;-71
2022/03/27 07:28:05;;;;;;;10.57;5.47;;;;;;;;;;4934802;29;20465;-67
2022/03/27 07:30:32;;;;;;;15.10;5.97;;;;;;;;;;4904789;29;20126;-66
2022/03/27 07:32:58;;;;;;;13.50;5.68;;;;;;;;;;4928723;29;20493;-71
2022/03/27 07:35:27;;;;;;;13.90;5.63;;;;;;;;;;4930051;29;20448;-68
2022/03/27 07:37:53;;;;;;;15.20;6.32;;;;;;;;;;4928716;29;20048;-70
2022/03/27 07:40:20;;;;;;;10.77;6.00;;;;;;;;;;4928228;29;20047;-73
2022/03/27 07:42:49;;;;;;;14.48;6.05;;;;;;;;;;4927696;29;20522;-69
2022/03/27 07:45:21;;;;;;;13.88;5.63;;;;;;;;;;4931498;29;20047;-67
2022/03/27 07:47:52;;;;;;;17.77;6.03;;;;;;;;;;4931744;29;20499;-69
2022/03/27 07:50:21;;;;;;;12.52;6.30;;;;;;;;;;4918064;29;20517;-74
2022/03/27 07:52:47;;;;;;;15.77;6.28;;;;;;;;;;4927493;29;20078;-67
2022/03/27 07:55:14;;;;;;;14.10;6.00;;;;;;;;;;4931043;29;20474;-69
2022/03/27 07:57:42;;;;;;;16.05;6.18;;;;;;;;;;4931377;29;20052;-68
2022/03/27 08:00:10;;;;;;;11.43;6.30;;;;;;;;;;4937446;29;20057;-70
2022/03/27 08:02:37;;;;;;;13.45;6.57;;;;;;;;;;4930518;29;20147;-70
2022/03/27 08:05:04;;;;;;;12.25;5.80;;;;;;;;;;4931251;29;20135;-67
2022/03/27 08:07:30;;;;;;;14.13;6.20;;;;;;;;;;4932859;29;20412;-67
2022/03/27 08:09:56;;;;;;;12.35;6.30;;;;;;;;;;4934274;29;20043;-71
2022/03/27 08:12:22;;;;;;;11.32;5.97;;;;;;;;;;4931711;29;20059;-71
2022/03/27 08:14:48;;;;;;;11.95;5.90;;;;;;;;;;4927288;29;20043;-68
2022/03/27 08:17:16;;;;;;;10.73;5.22;;;;;;;;;;4922599;29;20077;-69
2022/03/27 08:19:43;;;;;;;11.02;5.78;;;;;;;;;;4923953;29;20063;-69
2022/03/27 08:22:11;;;;;;;9.18;4.97;;;;;;;;;;4926245;29;20082;-69
2022/03/27 08:24:38;;;;;;;10.48;5.05;;;;;;;;;;4929557;29;20497;-73
2022/03/27 08:27:04;;;;;;;10.68;5.32;;;;;;;;;;4931113;29;20138;-71
2022/03/27 08:29:41;;;;;;;12.50;5.30;;;;;;;;;;4932481;29;20052;-69
2022/03/27 08:32:09;;;;;;;11.18;5.18;;;;;;;;;;4923465;29;20148;-69
2022/03/27 08:34:37;;;;;;;12.90;5.90;;;;;;;;;;4931888;29;20134;-69
2022/03/27 08:37:05;;;;;;;16.67;5.60;;;;;;;;;;4925833;29;20044;-69
2022/03/27 08:39:32;;;;;;;11.98;5.10;;;;;;;;;;4929922;29;20071;-74
2022/03/27 08:41:58;;;;;;;14.43;6.40;;;;;;;;;;4926349;29;20048;-68
2022/03/27 08:44:26;;;;;;;12.80;5.05;;;;;;;;;;4930581;29;20064;-73
2022/03/27 08:46:54;;;;;;;14.52;4.82;;;;;;;;;;4926937;29;20525;-68
2022/03/27 08:49:34;;;;;;;10.48;5.43;;;;;;;;;;4911366;29;20056;-72
2022/03/27 08:52:10;;;;;;;8.25;4.88;;;;;;;;;;4922920;29;20058;-69
2022/03/27 08:54:51;;;;;;;14.60;5.43;;;;;;;;;;4923857;29;20429;-70
2022/03/27 08:57:38;;;;;;;14.20;5.60;;;;;;;;;;4924358;29;20039;-69
2022/03/27 09:00:05;;;;;;;13.80;5.35;;;;;;;;;;4928114;29;20079;-68
2022/03/27 09:02:31;;;;;;;12.75;4.90;;;;;;;;;;4910592;29;20048;-70
2022/03/27 09:04:59;;;;;;;21.60;5.85;;;;;;;;;;4926024;29;20051;-76
2022/03/27 09:07:27;;;;;;;17.25;5.93;;;;;;;;;;4929441;29;20055;-70
2022/03/27 09:09:54;;;;;;;17.67;5.10;;;;;;;;;;4927117;29;20383;-74
2022/03/27 09:12:21;;;;;;;16.00;5.45;;;;;;;;;;4929799;29;20445;-68
2022/03/27 09:14:48;;;;;;;18.42;5.78;;;;;;;;;;4929526;29;20079;-73
2022/03/27 09:17:14;;;;;;;14.60;5.63;;;;;;;;;;4920341;29;20056;-68
2022/03/27 09:19:51;;;;;;;22.65;5.50;;;;;;;;;;4927198;29;20624;-74
2022/03/27 09:22:21;;;;;;;17.55;5.55;;;;;;;;;;4923521;29;20520;-68
2022/03/27 09:25:00;;;;;;;17.33;5.72;;;;;;;;;;4921827;29;20055;-69
2022/03/27 09:27:30;;;;;;;14.95;5.10;;;;;;;;;;4916204;29;20044;-71
2022/03/27 09:30:06;;;;;;;22.00;5.80;;;;;;;;;;4926023;29;20075;-71
2022/03/27 09:32:37;;;;;;;17.08;5.97;;;;;;;;;;4929641;29;20123;-67
2022/03/27 09:35:26;;;;;;;18.48;5.65;;;;;;;;;;4926806;29;20485;-73
2022/03/27 09:37:52;;;;;;;18.88;5.93;;;;;;;;;;4923754;29;20044;-70
2022/03/27 09:40:18;;;;;;;17.98;5.13;;;;;;;;;;4925414;29;20043;-69
2022/03/27 09:42:44;;;;;;;16.85;5.72;;;;;;;;;;4924376;29;20047;-73
2022/03/27 09:45:19;;;;;;;16.98;6.28;;;;;;;;;;4931381;29;20401;-68
2022/03/27 09:47:50;;;;;;;12.95;4.90;;;;;;;;;;4930587;29;20433;-73
2022/03/27 09:50:33;;;;;;;17.35;5.60;;;;;;;;;;4929259;29;20063;-68
2022/03/27 09:53:27;;;;;;;17.85;5.80;;;;;;;;;;4926982;29;20075;-68
2022/03/27 09:56:11;;;;;;;19.52;5.90;;;;;;;;;;4925449;29;20512;-68
2022/03/27 09:58:44;;;;;;;21.77;5.60;;;;;;;;;;4920936;29;20058;-68
2022/03/27 10:01:22;;;;;;;19.40;5.30;;;;;;;;;;4921167;29;20301;-67
2022/03/27 10:04:13;;;;;;;17.58;6.45;;;;;;;;;;4929036;29;20048;-69
2022/03/27 10:06:41;;;;;;;15.77;4.95;;;;;;;;;;4922886;29;20055;-72
2022/03/27 10:09:10;;;;;;;15.27;5.35;;;;;;;;;;4927525;29;20061;-72
2022/03/27 10:11:38;;;;;;;16.88;5.25;;;;;;;;;;4924344;29;20048;-72
2022/03/27 10:14:06;;;;;;;15.88;5.38;;;;;;;;;;4925049;29;20070;-72
2022/03/27 10:16:47;;;;;;;17.08;5.20;;;;;;;;;;4922002;29;20051;-68
2022/03/27 10:19:31;;;;;;;18.05;5.97;;;;;;;;;;4926494;29;20047;-71
2022/03/27 10:22:00;;;;;;;16.15;5.75;;;;;;;;;;4927177;29;20498;-71
2022/03/27 10:24:32;;;;;;;19.35;5.85;;;;;;;;;;4919994;29;20079;-63
2022/03/27 10:27:02;;;;;;;15.70;5.55;;;;;;;;;;4906723;29;20050;-69
2022/03/27 10:29:29;;;;;;;17.23;5.80;;;;;;;;;;4924061;29;20086;-69
2022/03/27 10:31:59;;;;;;;14.73;5.57;;;;;;;;;;4922671;29;20450;-68
2022/03/27 10:34:27;;;;;;;20.27;6.88;;;;;;;;;;4926852;29;20130;-71
2022/03/27 10:37:09;;;;;;;18.77;6.07;;;;;;;;;;4925539;29;20051;-69
2022/03/27 10:40:02;;;;;;;18.13;6.07;;;;;;;;;;4915102;29;20552;-73
2022/03/27 10:42:56;;;;;;;15.88;4.85;;;;;;;;;;4916273;29;20056;-72
2022/03/27 10:45:22;;;;;;;18.42;5.03;;;;;;;;;;4925936;29;20309;-70
2022/03/27 10:48:19;;;;;;;14.80;4.90;;;;;;;;;;4907051;29;20127;-69
2022/03/27 10:50:55;;;;;;;17.70;5.05;;;;;;;;;;4929647;29;20051;-69
2022/03/27 10:53:25;;;;;;;15.98;5.10;;;;;;;;;;4927647;29;20541;-72
2022/03/27 10:55:54;;;;;;;17.65;5.20;;;;;;;;;;4925287;29;20047;-68
2022/03/27 10:58:37;;;;;;;13.05;5.05;;;;;;;;;;4926483;29;20111;-72
2022/03/27 11:01:09;;;;;;;15.98;5.07;;;;;;;;;;4935569;29;20052;-73
2022/03/27 11:04:04;;;;;;;18.45;4.90;;;;;;;;;;4935165;29;20103;-68
2022/03/27 11:06:33;;;;;;;15.48;4.72;;;;;;;;;;4931674;29;20528;-72
2022/03/27 11:09:02;;;;;;;17.95;4.57;;;;;;;;;;4922826;29;20043;-70
2022/03/27 11:11:33;;;;;;;22.58;5.25;;;;;;;;;;4940437;29;20046;-70
2022/03/27 11:14:00;;;;;;;16.30;4.75;;;;;;;;;;4927399;29;20078;-73
2022/03/27 11:16:26;;;;;;;16.23;5.00;;;;;;;;;;4927354;29;20055;-70
2022/03/27 11:18:52;;;;;;;16.90;5.00;;;;;;;;;;4933269;29;20051;-71
2022/03/27 11:21:27;;;;;;;24.13;5.40;;;;;;;;;;4927814;29;20078;-68
2022/03/27 11:24:19;;;;;;;13.48;4.60;;;;;;;;;;4933882;29;20408;-69
2022/03/27 11:26:45;;;;;;;18.00;5.30;;;;;;;;;;4920690;29;20090;-69
2022/03/27 11:29:19;;;;;;;20.60;4.93;;;;;;;;;;4923104;29;20524;-73
2022/03/27 11:32:08;;;;;;;15.13;4.88;;;;;;;;;;4924798;29;20043;-69
2022/03/27 11:34:35;;;;;;;12.55;4.03;;;;;;;;;;4930542;29;20070;-72
2022/03/27 11:37:10;;;;;;;15.77;4.47;;;;;;;;;;4926582;29;20051;-68
2022/03/27 11:39:37;;;;;;;15.48;4.78;;;;;;;;;;4924728;29;20137;-67
2022/03/27 11:42:29;;;;;;;13.48;4.65;;;;;;;;;;4926063;29;20592;-70
2022/03/27 11:45:08;;;;;;;17.15;4.55;;;;;;;;;;4928963;29;20050;-75
2022/03/27 11:47:42;;;;;;;24.85;5.30;;;;;;;;;;4930053;29;20140;-70
2022/03/27 11:50:18;;;;;;;17.60;5.93;;;;;;;;;;4928896;29;20359;-69
2022/03/27 11:52:47;;;;;;;17.90;5.05;;;;;;;;;;4929266;29;20561;-72
2022/03/27 11:55:14;;;;;;;16.98;4.80;;;;;;;;;;4918279;29;20058;-75
2022/03/27 11:57:41;;;;;;;23.75;6.40;;;;;;;;;;4921727;29;20048;-66
2022/03/27 12:00:08;;;;;;;16.83;5.07;;;;;;;;;;4928634;29;20103;-69
2022/03/27 12:02:51;;;;;;;16.75;4.90;;;;;;;;;;4919937;29;20660;-68
2022/03/27 12:05:17;;;;;;;16.80;5.07;;;;;;;;;;4927928;29;20099;-76
2022/03/27 12:07:56;;;;;;;19.88;4.63;;;;;;;;;;4917818;29;20517;-70
2022/03/27 12:10:23;;;;;;;16.90;4.80;;;;;;;;;;4928854;29;20470;-75
2022/03/27 12:13:04;;;;;;;18.08;4.93;;;;;;;;;;4929703;29;20047;-72
2022/03/27 12:15:50;;;;;;;21.42;5.32;;;;;;;;;;4930444;29;20051;-69
2022/03/27 12:18:30;;;;;;;14.98;4.43;;;;;;;;;;4916840;29;20055;-70
2022/03/27 12:20:56;;;;;;;14.18;4.57;;;;;;;;;;4913782;29;20048;-70
2022/03/27 12:23:34;;;;;;;12.77;4.47;;;;;;;;;;4928380;29;20056;-73
2022/03/27 12:26:00;;;;;;;18.05;4.90;;;;;;;;;;4929128;29;20043;-74
2022/03/27 12:31:24;;;;;;;;;;;;;;;;;;4928380;29;20118;-68
2022/03/27 12:33:51;;;;;;;21.70;5.75;;;;;;;;;;4931027;29;19923;-67
2022/03/27 12:36:18;;;;;;;19.40;4.80;;;;;;;;;;4928769;29;20051;-73
2022/03/27 12:38:44;;;;;;;20.95;5.22;;;;;;;;;;4925319;29;20130;-68
2022/03/27 12:41:11;;;;;;;23.75;5.68;;;;;;;;;;4930067;29;20044;-68
2022/03/27 12:43:42;;;;;;;20.75;5.65;;;;;;;;;;4923047;29;20052;-68
2022/03/27 12:46:20;;;;;;;17.20;5.22;;;;;;;;;;4918612;29;20045;-70
2022/03/27 12:48:59;;;;;;;19.02;4.57;;;;;;;;;;4927756;29;20064;-76
2022/03/27 12:51:25;;;;;;;16.73;4.63;;;;;;;;;;4923050;29;20387;-75
2022/03/27 12:54:03;;;;;;;21.73;4.85;;;;;;;;;;4926753;29;20433;-67
2022/03/27 12:56:30;;;;;;;16.77;4.50;;;;;;;;;;4928918;29;20734;-70
2022/03/27 12:58:56;;;;;;;18.88;4.78;;;;;;;;;;4912970;29;20054;-73
2022/03/27 13:01:23;;;;;;;13.50;4.63;;;;;;;;;;4927835;29;20409;-72
2022/03/27 13:04:01;;;;;;;17.98;4.78;;;;;;;;;;4930181;29;20204;-67
2022/03/27 13:06:42;;;;;;;15.63;5.10;;;;;;;;;;4929178;29;20047;-68
2022/03/27 13:09:09;;;;;;;18.40;4.95;;;;;;;;;;4927991;29;20131;-67
2022/03/27 13:11:40;;;;;;;16.65;4.65;;;;;;;;;;4929785;29;20055;-67
2022/03/27 13:14:07;;;;;;;17.98;5.00;;;;;;;;;;4912152;29;20511;-68
2022/03/27 13:16:43;;;;;;;20.20;5.07;;;;;;;;;;4926325;29;20059;-71
2022/03/27 13:19:14;;;;;;;22.05;5.38;;;;;;;;;;4929801;29;20203;-71
2022/03/27 13:21:43;;;;;;;22.70;5.43;;;;;;;;;;4927810;29;20382;-69
2022/03/27 13:24:13;;;;;;;21.63;5.55;;;;;;;;;;4928704;29;20058;-75
2022/03/27 13:26:47;;;;;;;20.05;4.70;;;;;;;;;;4924194;29;20044;-69
2022/03/27 13:29:19;;;;;;;19.25;4.63;;;;;;;;;;4914325;29;20047;-68
2022/03/27 13:31:45;;;;;;;17.63;4.93;;;;;;;;;;4906161;29;20048;-74
2022/03/27 13:34:15;;;;;;;19.73;5.15;;;;;;;;;;4927084;29;20047;-73
2022/03/27 13:36:47;;;;;;;20.20;4.95;;;;;;;;;;4923095;29;20056;-76
2022/03/27 13:39:13;;;;;;;20.70;5.05;;;;;;;;;;4926268;29;20390;-76
2022/03/27 13:44:27;;;;;;;18.00;4.65;;;;;;;;;;4921752;29;20162;-74
2022/03/27 13:46:53;;;;;;;24.58;4.70;;;;;;;;;;4924509;29;20047;-68
2022/03/27 13:49:20;;;;;;;14.90;5.10;;;;;;;;;;4925974;29;20062;-73
2022/03/27 13:51:47;;;;;;;23.92;5.15;;;;;;;;;;4929013;29;20095;-69
2022/03/27 13:54:13;;;;;;;21.35;5.25;;;;;;;;;;4928393;29;20054;-74
2022/03/27 13:56:40;;;;;;;22.95;5.28;;;;;;;;;;4919866;29;20690;-73
2022/03/27 13:59:08;;;;;;;19.10;4.82;;;;;;;;;;4920875;29;20564;-67
2022/03/27 14:01:40;;;;;;;21.10;4.85;;;;;;;;;;4927586;29;20059;-76
2022/03/27 14:04:07;;;;;;;22.25;5.38;;;;;;;;;;4922988;29;20176;-71
2022/03/27 14:06:34;;;;;;;17.65;4.47;;;;;;;;;;4926928;29;20055;-73
2022/03/27 14:09:01;;;;;;;19.25;5.30;;;;;;;;;;4928140;29;20044;-68
2022/03/27 14:11:28;;;;;;;16.77;4.70;;;;;;;;;;4924770;29;20169;-70
2022/03/27 14:13:55;;;;;;;19.10;4.47;;;;;;;;;;4927676;29;20051;-68
2022/03/27 14:16:21;;;;;;;18.08;4.55;;;;;;;;;;4924649;29;20104;-70
2022/03/27 14:18:47;;;;;;;15.65;4.43;;;;;;;;;;4927898;29;20115;-77
2022/03/27 14:21:14;;;;;;;17.85;4.50;;;;;;;;;;4926584;29;20131;-69
2022/03/27 14:23:40;;;;;;;20.92;5.15;;;;;;;;;;4927063;29;20051;-73
2022/03/27 14:26:06;;;;;;;22.63;5.25;;;;;;;;;;4928020;29;20470;-74
2022/03/27 14:28:34;;;;;;;21.30;4.45;;;;;;;;;;4925967;29;20047;-74
2022/03/27 14:31:00;;;;;;;19.52;5.38;;;;;;;;;;4929061;29;20043;-70
2022/03/27 14:33:26;;;;;;;20.23;4.93;;;;;;;;;;4927825;29;20059;-67
2022/03/27 14:35:53;;;;;;;19.17;5.07;;;;;;;;;;4927417;29;20178;-72
2022/03/27 14:38:21;;;;;;;16.23;4.47;;;;;;;;;;4908853;29;20044;-73
2022/03/27 14:40:47;;;;;;;20.38;4.40;;;;;;;;;;4921447;29;20094;-68
2022/03/27 14:43:14;;;;;;;16.92;4.97;;;;;;;;;;4931715;29;20400;-72
2022/03/27 14:45:40;;;;;;;21.70;5.75;;;;;;;;;;4927134;29;20046;-69
2022/03/27 14:48:06;;;;;;;21.92;5.35;;;;;;;;;;4932308;29;20040;-70
2022/03/27 14:50:32;;;;;;;24.75;4.80;;;;;;;;;;4931154;29;20421;-74